Time,TemperatureF,DewpointF,PressureIn,WindDirection,WindDirectionDegrees,WindSpeedMPH,WindSpeedGustMPH,Humidity,HourlyPrecipIn,Conditions,Clouds,dailyrainin,SoftwareType,DateUTC
2014-02-17 00:03:00,25.7,16.6,32.00,North,0,0.0,0.0,68,0.00,,SKC,0.00,VWS V13.00,2014-02-17 07:03:00,
2014-02-17 00:08:00,25.3,16.3,32.00,North,0,0.0,0.0,68,0.00,,SKC,0.00,VWS V13.00,2014-02-17 07:08:00,
2014-02-17 00:13:00,25.2,16.1,32.00,North,0,0.0,0.0,68,0.00,,SKC,0.00,VWS V13.00,2014-02-17 07:13:00,
2014-02-17 00:18:00,25.0,15.9,32.00,North,0,0.0,0.0,68,0.00,,SKC,0.00,VWS V13.00,2014-02-17 07:18:00,
2014-02-17 00:23:00,25.0,16.3,32.00,North,0,0.0,0.0,69,0.00,,SKC,0.00,VWS V13.00,2014-02-17 07:23:00,
2014-02-17 00:28:00,25.2,16.8,32.00,North,0,0.0,0.0,70,0.00,,SKC,0.00,VWS V13.00,2014-02-17 07:28:00,
2014-02-17 00:33:00,25.2,16.8,32.00,North,0,0.0,0.0,70,0.00,,SKC,0.00,VWS V13.00,2014-02-17 07:33:00,
2014-02-17 00:38:00,24.8,16.1,32.00,North,0,0.0,0.0,69,0.00,,SKC,0.00,VWS V13.00,2014-02-17 07:38:00,
2014-02-17 00:43:00,24.4,15.7,32.00,North,0,0.0,0.0,69,0.00,,SKC,0.00,VWS V13.00,2014-02-17 07:43:00,
2014-02-17 00:48:00,24.3,15.9,32.00,North,0,0.0,0.0,70,0.00,,SKC,0.00,VWS V13.00,2014-02-17 07:48:00,
2014-02-17 00:53:00,24.4,16.1,32.00,North,0,0.0,0.0,70,0.00,,SKC,0.00,VWS V13.00,2014-02-17 07:53:00,
2014-02-17 00:58:00,24.4,16.1,32.00,North,0,0.0,0.0,70,0.00,,SKC,0.00,VWS V13.00,2014-02-17 07:58:00,
2014-02-17 01:03:00,24.4,16.1,32.00,North,0,0.0,0.0,70,0.00,,SKC,0.00,VWS V13.00,2014-02-17 08:03:00,
2014-02-17 01:08:00,24.3,15.9,32.00,North,0,0.0,0.0,70,0.00,,SKC,0.00,VWS V13.00,2014-02-17 08:08:00,
2014-02-17 01:13:00,24.3,15.9,32.00,North,0,0.0,0.0,70,0.00,,SKC,0.00,VWS V13.00,2014-02-17 08:13:00,
2014-02-17 01:18:00,23.9,15.2,32.00,North,0,0.0,0.0,69,0.00,,SKC,0.00,VWS V13.00,2014-02-17 08:18:00,
2014-02-17 01:23:00,23.7,15.1,32.00,North,0,0.0,0.0,69,0.00,,SKC,0.00,VWS V13.00,2014-02-17 08:23:00,
2014-02-17 01:28:00,23.7,15.4,32.00,North,0,0.0,0.0,70,0.00,,SKC,0.00,VWS V13.00,2014-02-17 08:28:00,
2014-02-17 01:33:00,23.9,15.6,32.00,North,0,0.0,0.0,70,0.00,,SKC,0.00,VWS V13.00,2014-02-17 08:33:00,
2014-02-17 01:38:00,23.5,15.2,32.00,North,0,0.0,0.0,70,0.00,,SKC,0.00,VWS V13.00,2014-02-17 08:38:00,
2014-02-17 01:43:00,23.2,14.9,32.00,North,0,0.0,0.0,70,0.00,,SKC,0.00,VWS V13.00,2014-02-17 08:43:00,
2014-02-17 01:48:00,23.2,14.9,32.00,North,0,0.0,0.0,70,0.00,,SKC,0.00,VWS V13.00,2014-02-17 08:48:00,
2014-02-17 01:53:00,23.2,14.9,32.00,North,0,0.0,0.0,70,0.00,,SKC,0.00,VWS V13.00,2014-02-17 08:53:00,
2014-02-17 01:58:00,23.0,15.0,32.00,North,0,0.0,0.0,71,0.00,,SKC,0.00,VWS V13.00,2014-02-17 08:58:00,
2014-02-17 02:03:00,23.0,15.0,32.00,North,0,0.0,0.0,71,0.00,,SKC,0.00,VWS V13.00,2014-02-17 09:03:00,
2014-02-17 02:08:00,23.0,15.0,32.00,North,0,0.0,0.0,71,0.00,,SKC,0.00,VWS V13.00,2014-02-17 09:08:00,
2014-02-17 02:13:00,22.8,14.5,32.00,North,0,0.0,0.0,70,0.00,,SKC,0.00,VWS V13.00,2014-02-17 09:13:00,
2014-02-17 02:18:00,22.8,14.5,32.00,North,0,0.0,0.0,70,0.00,,SKC,0.00,VWS V13.00,2014-02-17 09:18:00,
2014-02-17 02:23:00,22.8,14.5,32.00,North,0,0.0,0.0,70,0.00,,SKC,0.00,VWS V13.00,2014-02-17 09:23:00,
2014-02-17 02:28:00,22.8,14.5,32.00,North,0,0.0,0.0,70,0.00,,SKC,0.00,VWS V13.00,2014-02-17 09:28:00,
2014-02-17 02:33:00,23.0,14.7,32.00,North,0,0.0,0.0,70,0.00,,SKC,0.00,VWS V13.00,2014-02-17 09:33:00,
2014-02-17 02:38:00,22.8,14.5,32.00,North,0,0.0,0.0,70,0.00,,SKC,0.00,VWS V13.00,2014-02-17 09:38:00,
2014-02-17 02:43:00,22.6,14.0,32.00,North,0,0.0,0.0,69,0.00,,SKC,0.00,VWS V13.00,2014-02-17 09:43:00,
2014-02-17 02:48:00,22.5,13.8,32.00,North,0,0.0,0.0,69,0.00,,SKC,0.00,VWS V13.00,2014-02-17 09:48:00,
2014-02-17 02:53:00,22.3,13.7,32.00,North,0,0.0,0.0,69,0.00,,SKC,0.00,VWS V13.00,2014-02-17 09:53:00,
2014-02-17 02:58:00,22.1,13.5,32.00,North,0,0.0,0.0,69,0.00,,SKC,0.00,VWS V13.00,2014-02-17 09:58:00,
2014-02-17 03:03:00,22.1,13.5,32.00,North,0,0.0,0.0,69,0.00,,SKC,0.00,VWS V13.00,2014-02-17 10:03:00,
2014-02-17 03:08:00,22.1,13.5,32.00,North,0,0.0,0.0,69,0.00,,SKC,0.00,VWS V13.00,2014-02-17 10:08:00,
2014-02-17 03:13:00,22.3,13.7,32.00,North,0,0.0,0.0,69,0.00,,SKC,0.00,VWS V13.00,2014-02-17 10:13:00,
2014-02-17 03:18:00,22.1,13.5,32.00,North,0,0.0,0.0,69,0.00,,SKC,0.00,VWS V13.00,2014-02-17 10:18:00,
2014-02-17 03:23:00,22.1,13.5,32.00,North,0,0.0,0.0,69,0.00,,SKC,0.00,VWS V13.00,2014-02-17 10:23:00,
2014-02-17 03:28:00,22.3,13.7,32.00,North,0,0.0,0.0,69,0.00,,SKC,0.00,VWS V13.00,2014-02-17 10:28:00,
2014-02-17 03:33:00,22.3,13.7,32.00,North,0,0.0,0.0,69,0.00,,SKC,0.00,VWS V13.00,2014-02-17 10:33:00,
2014-02-17 03:38:00,22.3,14.0,32.00,North,0,0.0,0.0,70,0.00,,SKC,0.00,VWS V13.00,2014-02-17 10:38:00,
2014-02-17 03:43:00,22.3,13.7,32.00,North,0,0.0,0.0,69,0.00,,SKC,0.00,VWS V13.00,2014-02-17 10:43:00,
2014-02-17 03:48:00,22.1,13.5,32.00,North,0,0.0,0.0,69,0.00,,SKC,0.00,VWS V13.00,2014-02-17 10:48:00,
2014-02-17 03:53:00,22.1,13.5,32.00,North,0,0.0,0.0,69,0.00,,SKC,0.00,VWS V13.00,2014-02-17 10:53:00,
2014-02-17 03:58:00,21.9,13.3,32.00,North,0,0.0,0.0,69,0.00,,SKC,0.00,VWS V13.00,2014-02-17 10:58:00,
2014-02-17 04:03:00,21.9,13.3,32.00,North,0,0.0,0.0,69,0.00,,SKC,0.00,VWS V13.00,2014-02-17 11:03:00,
2014-02-17 04:08:00,21.9,13.3,32.00,North,0,0.0,0.0,69,0.00,,SKC,0.00,VWS V13.00,2014-02-17 11:08:00,
2014-02-17 04:13:00,22.1,13.8,32.00,North,0,0.0,0.0,70,0.00,,SKC,0.00,VWS V13.00,2014-02-17 11:13:00,
2014-02-17 04:18:00,21.9,13.6,32.00,North,0,0.0,0.0,70,0.00,,SKC,0.00,VWS V13.00,2014-02-17 11:18:00,
2014-02-17 04:23:00,21.7,13.5,32.00,North,0,0.0,0.0,70,0.00,,SKC,0.00,VWS V13.00,2014-02-17 11:23:00,
2014-02-17 04:28:00,21.7,13.5,32.00,North,0,0.0,0.0,70,0.00,,SKC,0.00,VWS V13.00,2014-02-17 11:28:00,
2014-02-17 04:33:00,21.7,13.5,32.00,North,0,0.0,0.0,70,0.00,,SKC,0.00,VWS V13.00,2014-02-17 11:33:00,
2014-02-17 04:38:00,21.7,13.8,32.00,North,0,0.0,0.0,71,0.00,,SKC,0.00,VWS V13.00,2014-02-17 11:38:00,
2014-02-17 04:43:00,21.9,14.0,32.00,North,0,0.0,0.0,71,0.00,,SKC,0.00,VWS V13.00,2014-02-17 11:43:00,
2014-02-17 04:48:00,21.7,13.5,32.00,North,0,0.0,0.0,70,0.00,,SKC,0.00,VWS V13.00,2014-02-17 11:48:00,
2014-02-17 04:53:00,21.7,13.5,32.00,North,0,0.0,0.0,70,0.00,,SKC,0.00,VWS V13.00,2014-02-17 11:53:00,
2014-02-17 04:58:00,21.6,13.3,32.00,North,0,0.0,0.0,70,0.00,,SKC,0.00,VWS V13.00,2014-02-17 11:58:00,
2014-02-17 05:03:00,21.7,13.5,32.00,North,0,0.0,0.0,70,0.00,,SKC,0.00,VWS V13.00,2014-02-17 12:03:00,
2014-02-17 05:08:00,21.7,13.5,32.00,North,0,0.0,0.0,70,0.00,,SKC,0.00,VWS V13.00,2014-02-17 12:08:00,
2014-02-17 05:12:00,21.9,13.6,32.00,North,0,0.0,0.0,70,0.00,,SKC,0.00,VWS V13.00,2014-02-17 12:12:00,
2014-02-17 05:17:00,21.7,13.5,32.00,North,0,0.0,0.0,70,0.00,,SKC,0.00,VWS V13.00,2014-02-17 12:17:00,
2014-02-17 05:22:00,21.6,13.0,32.00,North,0,0.0,0.0,69,0.00,,SKC,0.00,VWS V13.00,2014-02-17 12:22:00,
2014-02-17 05:27:00,21.6,13.0,32.00,North,0,0.0,0.0,69,0.00,,SKC,0.00,VWS V13.00,2014-02-17 12:27:00,
2014-02-17 05:32:00,21.4,12.8,32.00,North,0,0.0,0.0,69,0.00,,SKC,0.00,VWS V13.00,2014-02-17 12:32:00,
2014-02-17 05:37:00,21.4,12.8,32.00,North,0,0.0,0.0,69,0.00,,SKC,0.00,VWS V13.00,2014-02-17 12:37:00,
2014-02-17 05:42:00,21.4,12.8,32.00,North,0,0.0,0.0,69,0.00,,SKC,0.00,VWS V13.00,2014-02-17 12:42:00,
2014-02-17 05:47:00,21.4,12.8,32.00,North,0,0.0,0.0,69,0.00,,SKC,0.00,VWS V13.00,2014-02-17 12:47:00,
2014-02-17 05:52:00,21.2,12.6,32.00,North,0,0.0,0.0,69,0.00,,SKC,0.00,VWS V13.00,2014-02-17 12:52:00,
2014-02-17 05:57:00,21.2,12.6,32.00,North,0,0.0,0.0,69,0.00,,SKC,0.00,VWS V13.00,2014-02-17 12:57:00,
2014-02-17 06:02:00,21.2,12.6,32.00,North,0,0.0,0.0,69,0.00,,SKC,0.00,VWS V13.00,2014-02-17 13:02:00,
2014-02-17 06:07:00,21.2,12.6,32.00,North,0,0.0,0.0,69,0.00,,SKC,0.00,VWS V13.00,2014-02-17 13:07:00,
2014-02-17 06:12:00,21.2,12.6,32.00,North,0,0.0,0.0,69,0.00,,SKC,0.00,VWS V13.00,2014-02-17 13:12:00,
2014-02-17 06:17:00,21.2,12.6,32.00,North,0,0.0,0.0,69,0.00,,SKC,0.00,VWS V13.00,2014-02-17 13:17:00,
2014-02-17 06:22:00,21.2,12.6,32.00,North,0,0.0,0.0,69,0.00,,SKC,0.00,VWS V13.00,2014-02-17 13:22:00,
2014-02-17 06:27:00,21.2,12.6,32.00,North,0,0.0,0.0,69,0.00,,SKC,0.00,VWS V13.00,2014-02-17 13:27:00,
2014-02-17 06:32:00,21.2,12.6,32.00,North,0,0.0,0.0,69,0.00,,SKC,0.00,VWS V13.00,2014-02-17 13:32:00,
2014-02-17 06:37:00,21.2,12.6,32.00,North,0,0.0,0.0,69,0.00,,SKC,0.00,VWS V13.00,2014-02-17 13:37:00,
2014-02-17 06:42:00,21.2,12.6,32.00,North,0,0.0,0.0,69,0.00,,SKC,0.00,VWS V13.00,2014-02-17 13:42:00,
2014-02-17 06:47:00,21.2,13.0,32.00,North,0,0.0,0.0,70,0.00,,SKC,0.00,VWS V13.00,2014-02-17 13:47:00,
2014-02-17 06:52:00,21.2,12.6,32.00,North,0,0.0,0.0,69,0.00,,SKC,0.00,VWS V13.00,2014-02-17 13:52:00,
2014-02-17 06:57:00,21.2,12.6,32.00,North,0,0.0,0.0,69,0.00,,SKC,0.00,VWS V13.00,2014-02-17 13:57:00,
2014-02-17 07:02:00,21.2,12.6,32.00,North,0,0.0,0.0,69,0.00,,SKC,0.00,VWS V13.00,2014-02-17 14:02:00,
2014-02-17 07:07:00,21.2,12.6,32.00,North,0,0.0,0.0,69,0.00,,SKC,0.00,VWS V13.00,2014-02-17 14:07:00,
2014-02-17 07:12:00,21.2,12.6,32.00,North,0,0.0,0.0,69,0.00,,SKC,0.00,VWS V13.00,2014-02-17 14:12:00,
2014-02-17 07:17:00,21.2,12.6,32.00,North,0,0.0,0.0,69,0.00,,SKC,0.00,VWS V13.00,2014-02-17 14:17:00,
2014-02-17 07:22:00,21.2,12.6,32.00,North,0,0.0,0.0,69,0.00,,SKC,0.00,VWS V13.00,2014-02-17 14:22:00,
2014-02-17 07:27:00,21.2,12.6,32.00,North,0,0.0,0.0,69,0.00,,SKC,0.00,VWS V13.00,2014-02-17 14:27:00,
2014-02-17 07:32:00,21.0,12.5,32.00,North,0,0.0,0.0,69,0.00,,SKC,0.00,VWS V13.00,2014-02-17 14:32:00,
2014-02-17 07:37:00,21.2,13.0,32.00,North,0,0.0,0.0,70,0.00,,SKC,0.00,VWS V13.00,2014-02-17 14:37:00,
2014-02-17 07:42:00,21.4,12.8,32.00,North,0,0.0,0.0,69,0.00,,SKC,0.00,VWS V13.00,2014-02-17 14:42:00,
2014-02-17 07:47:00,21.6,13.3,32.00,North,0,0.0,0.0,70,0.00,,SKC,0.00,VWS V13.00,2014-02-17 14:47:00,
2014-02-17 07:52:00,21.9,13.6,32.00,North,0,0.0,0.0,70,0.00,,SKC,0.00,VWS V13.00,2014-02-17 14:52:00,
2014-02-17 07:57:00,22.5,14.2,32.00,North,0,0.0,0.0,70,0.00,,SKC,0.00,VWS V13.00,2014-02-17 14:57:00,
2014-02-17 08:02:00,22.8,14.5,32.00,North,0,0.0,0.0,70,0.00,,SKC,0.00,VWS V13.00,2014-02-17 15:02:00,
2014-02-17 08:07:00,23.5,14.9,32.00,North,0,0.0,0.0,69,0.00,,SKC,0.00,VWS V13.00,2014-02-17 15:07:00,
2014-02-17 08:12:00,24.1,15.1,32.00,North,0,0.0,0.0,68,0.00,,SKC,0.00,VWS V13.00,2014-02-17 15:12:00,
2014-02-17 08:17:00,24.6,15.6,32.00,North,0,0.0,0.0,68,0.00,,SKC,0.00,VWS V13.00,2014-02-17 15:17:00,
2014-02-17 08:22:00,25.2,15.4,32.00,North,0,0.0,0.0,66,0.00,,SKC,0.00,VWS V13.00,2014-02-17 15:22:00,
2014-02-17 08:27:00,25.5,15.4,32.00,North,0,0.0,0.0,65,0.00,,SKC,0.00,VWS V13.00,2014-02-17 15:27:00,
2014-02-17 08:32:00,25.9,15.4,32.00,North,0,0.0,0.0,64,0.00,,SKC,0.00,VWS V13.00,2014-02-17 15:32:00,
2014-02-17 08:37:00,26.1,15.6,32.00,North,0,0.0,0.0,64,0.00,,SKC,0.00,VWS V13.00,2014-02-17 15:37:00,
2014-02-17 08:42:00,26.4,15.9,32.00,North,0,0.0,0.0,64,0.00,,SKC,0.00,VWS V13.00,2014-02-17 15:42:00,
2014-02-17 08:47:00,26.8,15.9,32.00,North,0,0.0,0.0,63,0.00,,SKC,0.00,VWS V13.00,2014-02-17 15:47:00,
2014-02-17 08:52:00,27.0,16.1,32.00,North,0,0.0,0.0,63,0.00,,SKC,0.00,VWS V13.00,2014-02-17 15:52:00,
2014-02-17 08:57:00,27.1,16.2,32.00,North,0,0.0,0.0,63,0.00,,SKC,0.00,VWS V13.00,2014-02-17 15:57:00,
2014-02-17 09:02:00,27.3,16.4,32.00,North,0,0.0,0.0,63,0.00,,SKC,0.00,VWS V13.00,2014-02-17 16:02:00,
2014-02-17 09:07:00,27.5,16.2,32.00,North,0,0.0,0.0,62,0.00,,SKC,0.00,VWS V13.00,2014-02-17 16:07:00,
2014-02-17 09:12:00,27.9,16.5,32.00,North,0,0.0,0.0,62,0.00,,SKC,0.00,VWS V13.00,2014-02-17 16:12:00,
2014-02-17 09:17:00,28.4,16.7,32.00,North,0,0.0,0.0,61,0.00,,SKC,0.00,VWS V13.00,2014-02-17 16:17:00,
2014-02-17 09:22:00,28.9,16.8,32.00,North,0,0.0,0.0,60,0.00,,SKC,0.00,VWS V13.00,2014-02-17 16:22:00,
2014-02-17 09:27:00,29.5,16.1,32.00,North,0,0.0,0.0,57,0.00,,SKC,0.00,VWS V13.00,2014-02-17 16:27:00,
2014-02-17 09:32:00,30.2,16.4,32.00,North,0,0.0,0.0,56,0.00,,SKC,0.00,VWS V13.00,2014-02-17 16:32:00,
2014-02-17 09:37:00,30.6,16.3,32.00,North,0,0.0,0.0,55,0.00,,SKC,0.00,VWS V13.00,2014-02-17 16:37:00,
2014-02-17 09:42:00,30.9,15.8,32.00,North,0,0.0,0.0,53,0.00,,SKC,0.00,VWS V13.00,2014-02-17 16:42:00,
2014-02-17 09:47:00,31.1,15.5,32.00,North,0,0.0,0.0,52,0.00,,SKC,0.00,VWS V13.00,2014-02-17 16:47:00,
2014-02-17 09:52:00,31.1,15.1,32.00,North,0,0.0,0.0,51,0.00,,SKC,0.00,VWS V13.00,2014-02-17 16:52:00,
2014-02-17 09:57:00,31.5,15.0,32.00,North,0,0.0,0.0,50,0.00,,SKC,0.00,VWS V13.00,2014-02-17 16:57:00,
2014-02-17 10:02:00,31.8,14.4,32.00,North,0,0.0,0.0,48,0.00,,SKC,0.00,VWS V13.00,2014-02-17 17:02:00,
2014-02-17 10:07:00,32.2,14.7,32.00,North,0,0.0,0.0,48,0.00,,SKC,0.00,VWS V13.00,2014-02-17 17:07:00,
2014-02-17 10:12:00,32.5,15.0,32.00,North,0,0.0,0.0,48,0.00,,SKC,0.00,VWS V13.00,2014-02-17 17:12:00,
2014-02-17 10:17:00,32.7,13.7,32.00,North,0,0.0,0.0,45,0.00,,SKC,0.00,VWS V13.00,2014-02-17 17:17:00,
2014-02-17 10:22:00,33.1,14.1,32.00,North,0,0.0,0.0,45,0.00,,SKC,0.00,VWS V13.00,2014-02-17 17:22:00,
2014-02-17 10:27:00,33.3,14.2,32.00,North,0,0.0,0.0,45,0.00,,SKC,0.00,VWS V13.00,2014-02-17 17:27:00,
2014-02-17 10:32:00,33.6,14.6,32.00,North,0,0.0,0.0,45,0.00,,SKC,0.00,VWS V13.00,2014-02-17 17:32:00,
2014-02-17 10:37:00,33.8,14.2,32.00,North,0,0.0,0.0,44,0.00,,SKC,0.00,VWS V13.00,2014-02-17 17:37:00,
2014-02-17 10:42:00,34.3,14.2,32.00,North,0,0.0,0.0,43,0.00,,SKC,0.00,VWS V13.00,2014-02-17 17:42:00,
2014-02-17 10:47:00,34.5,13.8,32.00,North,0,0.0,0.0,42,0.00,,SKC,0.00,VWS V13.00,2014-02-17 17:47:00,
2014-02-17 10:52:00,34.9,14.1,32.00,North,0,0.0,0.0,42,0.00,,SKC,0.00,VWS V13.00,2014-02-17 17:52:00,
2014-02-17 10:57:00,35.2,14.5,32.00,North,0,0.0,0.0,42,0.00,,SKC,0.00,VWS V13.00,2014-02-17 17:57:00,
2014-02-17 11:02:00,35.6,14.2,32.00,North,0,0.0,0.0,41,0.00,,SKC,0.00,VWS V13.00,2014-02-17 18:02:00,
2014-02-17 11:07:00,36.0,15.1,32.00,North,0,0.0,0.0,42,0.00,,SKC,0.00,VWS V13.00,2014-02-17 18:07:00,
2014-02-17 11:12:00,36.3,15.4,32.00,North,0,0.0,0.0,42,0.00,,SKC,0.00,VWS V13.00,2014-02-17 18:12:00,
2014-02-17 11:17:00,36.5,15.6,32.00,North,0,0.0,0.0,42,0.00,,SKC,0.00,VWS V13.00,2014-02-17 18:17:00,
2014-02-17 11:22:00,36.7,15.2,32.00,North,0,0.0,0.0,41,0.00,,SKC,0.00,VWS V13.00,2014-02-17 18:22:00,
2014-02-17 11:27:00,37.0,15.5,32.00,North,0,0.0,0.0,41,0.00,,SKC,0.00,VWS V13.00,2014-02-17 18:27:00,
2014-02-17 11:32:00,37.4,15.9,32.00,North,0,0.0,0.0,41,0.00,,SKC,0.00,VWS V13.00,2014-02-17 18:32:00,
2014-02-17 11:37:00,37.8,15.6,32.00,North,0,0.0,0.0,40,0.00,,SKC,0.00,VWS V13.00,2014-02-17 18:37:00,
2014-02-17 11:42:00,38.1,15.9,32.00,North,0,0.0,0.0,40,0.00,,SKC,0.00,VWS V13.00,2014-02-17 18:42:00,
2014-02-17 11:47:00,38.7,15.9,32.00,North,0,0.0,0.0,39,0.00,,SKC,0.00,VWS V13.00,2014-02-17 18:47:00,
2014-02-17 11:52:00,39.4,17.1,32.00,North,0,0.0,0.0,40,0.00,,SKC,0.00,VWS V13.00,2014-02-17 18:52:00,
2014-02-17 11:57:00,39.6,16.7,32.00,North,0,0.0,0.0,39,0.00,,SKC,0.00,VWS V13.00,2014-02-17 18:57:00,
2014-02-17 12:02:00,39.9,17.0,32.00,North,0,0.0,0.0,39,0.00,,SKC,0.00,VWS V13.00,2014-02-17 19:02:00,
2014-02-17 12:07:00,40.3,17.3,32.00,North,0,0.0,0.0,39,0.00,,SKC,0.00,VWS V13.00,2014-02-17 19:07:00,
2014-02-17 12:12:00,40.8,17.8,32.00,North,0,0.0,0.0,39,0.00,,SKC,0.00,VWS V13.00,2014-02-17 19:12:00,
2014-02-17 12:17:00,40.8,17.8,32.00,North,0,0.0,0.0,39,0.00,,SKC,0.00,VWS V13.00,2014-02-17 19:17:00,
2014-02-17 12:22:00,41.2,17.5,32.00,North,0,0.0,0.0,38,0.00,,SKC,0.00,VWS V13.00,2014-02-17 19:22:00,
2014-02-17 12:27:00,41.5,17.8,32.00,North,0,0.0,0.0,38,0.00,,SKC,0.00,VWS V13.00,2014-02-17 19:27:00,
2014-02-17 12:32:00,42.1,18.9,32.00,North,0,0.0,0.0,39,0.00,,SKC,0.00,VWS V13.00,2014-02-17 19:32:00,
2014-02-17 12:37:00,42.3,18.5,32.00,North,0,0.0,0.0,38,0.00,,SKC,0.00,VWS V13.00,2014-02-17 19:37:00,
2014-02-17 12:42:00,42.6,18.8,32.00,North,0,0.0,0.0,38,0.00,,SKC,0.00,VWS V13.00,2014-02-17 19:42:00,
2014-02-17 12:47:00,42.8,19.0,32.00,North,0,0.0,0.0,38,0.00,,SKC,0.00,VWS V13.00,2014-02-17 19:47:00,
2014-02-17 12:52:00,43.2,19.3,32.00,North,0,0.0,0.0,38,0.00,,SKC,0.00,VWS V13.00,2014-02-17 19:52:00,
2014-02-17 12:57:00,43.5,18.4,32.00,North,0,0.0,0.0,36,0.00,,SKC,0.00,VWS V13.00,2014-02-17 19:57:00,
2014-02-17 13:02:00,43.7,19.8,32.00,North,0,0.0,0.0,38,0.00,,SKC,0.00,VWS V13.00,2014-02-17 20:02:00,
2014-02-17 13:07:00,44.2,20.3,32.00,North,0,0.0,0.0,38,0.00,,SKC,0.00,VWS V13.00,2014-02-17 20:07:00,
2014-02-17 13:12:00,44.6,20.0,32.00,North,0,0.0,0.0,37,0.00,,SKC,0.00,VWS V13.00,2014-02-17 20:12:00,
2014-02-17 13:17:00,44.8,19.5,32.00,North,0,0.0,0.0,36,0.00,,SKC,0.00,VWS V13.00,2014-02-17 20:17:00,
2014-02-17 13:22:00,44.8,20.1,32.00,North,0,0.0,0.0,37,0.00,,SKC,0.00,VWS V13.00,2014-02-17 20:22:00,
2014-02-17 13:27:00,44.8,18.8,32.00,North,0,0.0,0.0,35,0.00,,SKC,0.00,VWS V13.00,2014-02-17 20:27:00,
2014-02-17 13:32:00,45.0,18.3,32.00,North,0,0.0,0.0,34,0.00,,SKC,0.00,VWS V13.00,2014-02-17 20:32:00,
2014-02-17 13:37:00,45.5,18.1,32.00,North,0,0.0,0.0,33,0.00,,SKC,0.00,VWS V13.00,2014-02-17 20:37:00,
2014-02-17 13:42:00,46.2,16.5,32.00,North,0,0.0,0.0,30,0.00,,SKC,0.00,VWS V13.00,2014-02-17 20:42:00,
2014-02-17 13:47:00,46.8,17.7,32.00,North,0,0.0,0.0,31,0.00,,SKC,0.00,VWS V13.00,2014-02-17 20:47:00,
2014-02-17 13:52:00,46.8,17.0,32.00,North,0,0.0,0.0,30,0.00,,SKC,0.00,VWS V13.00,2014-02-17 20:52:00,
2014-02-17 13:57:00,46.8,17.7,32.00,North,0,0.0,0.0,31,0.00,,SKC,0.00,VWS V13.00,2014-02-17 20:57:00,
2014-02-17 14:02:00,46.6,16.0,32.00,North,0,0.0,0.0,29,0.00,,SKC,0.00,VWS V13.00,2014-02-17 21:02:00,
2014-02-17 14:07:00,46.6,16.8,32.00,North,0,0.0,0.0,30,0.00,,SKC,0.00,VWS V13.00,2014-02-17 21:07:00,
2014-02-17 14:12:00,46.4,17.4,32.00,North,0,0.0,0.0,31,0.00,,SKC,0.00,VWS V13.00,2014-02-17 21:12:00,
2014-02-17 14:17:00,46.2,18.0,32.00,North,0,0.0,0.0,32,0.00,,SKC,0.00,VWS V13.00,2014-02-17 21:17:00,
2014-02-17 14:22:00,46.0,17.1,32.00,North,0,0.0,0.0,31,0.00,,SKC,0.00,VWS V13.00,2014-02-17 21:22:00,
2014-02-17 14:27:00,46.2,17.3,32.00,North,0,0.0,0.0,31,0.00,,SKC,0.00,VWS V13.00,2014-02-17 21:27:00,
2014-02-17 14:32:00,46.0,15.6,32.00,North,0,0.0,0.0,29,0.00,,SKC,0.00,VWS V13.00,2014-02-17 21:32:00,
2014-02-17 14:37:00,46.4,16.7,32.00,North,0,0.0,0.0,30,0.00,,SKC,0.00,VWS V13.00,2014-02-17 21:37:00,
2014-02-17 14:42:00,46.8,16.2,32.00,North,0,0.0,0.0,29,0.00,,SKC,0.00,VWS V13.00,2014-02-17 21:42:00,
2014-02-17 14:47:00,46.9,16.4,32.00,North,0,0.0,0.0,29,0.00,,SKC,0.00,VWS V13.00,2014-02-17 21:47:00,
2014-02-17 14:52:00,47.1,17.3,32.00,North,0,0.0,0.0,30,0.00,,SKC,0.00,VWS V13.00,2014-02-17 21:52:00,
2014-02-17 14:57:00,46.9,16.4,32.00,North,0,0.0,0.0,29,0.00,,SKC,0.00,VWS V13.00,2014-02-17 21:57:00,
2014-02-17 15:02:00,47.1,17.3,32.00,North,0,0.0,0.0,30,0.00,,SKC,0.00,VWS V13.00,2014-02-17 22:02:00,
2014-02-17 15:07:00,47.3,17.5,32.00,North,0,0.0,0.0,30,0.00,,SKC,0.00,VWS V13.00,2014-02-17 22:07:00,
2014-02-17 15:12:00,47.5,18.4,32.00,North,0,0.0,0.0,31,0.00,,SKC,0.00,VWS V13.00,2014-02-17 22:12:00,
2014-02-17 15:17:00,47.5,16.8,32.00,North,0,0.0,0.0,29,0.00,,SKC,0.00,VWS V13.00,2014-02-17 22:17:00,
2014-02-17 15:22:00,47.7,17.0,32.00,North,0,0.0,0.0,29,0.00,,SKC,0.00,VWS V13.00,2014-02-17 22:22:00,
2014-02-17 15:27:00,47.5,16.8,32.00,North,0,0.0,0.0,29,0.00,,SKC,0.00,VWS V13.00,2014-02-17 22:27:00,
2014-02-17 15:32:00,47.5,16.0,32.00,North,0,0.0,0.0,28,0.00,,SKC,0.00,VWS V13.00,2014-02-17 22:32:00,
2014-02-17 15:37:00,47.7,17.0,32.00,North,0,0.0,0.0,29,0.00,,SKC,0.00,VWS V13.00,2014-02-17 22:37:00,
2014-02-17 15:42:00,47.1,17.3,32.00,North,0,0.0,0.0,30,0.00,,SKC,0.00,VWS V13.00,2014-02-17 22:42:00,
2014-02-17 15:47:00,46.6,16.0,32.00,North,0,0.0,0.0,29,0.00,,SKC,0.00,VWS V13.00,2014-02-17 22:47:00,
2014-02-17 15:52:00,46.6,16.0,32.00,North,0,0.0,0.0,29,0.00,,SKC,0.00,VWS V13.00,2014-02-17 22:52:00,
2014-02-17 15:57:00,46.6,16.0,32.00,North,0,0.0,0.0,29,0.00,,SKC,0.00,VWS V13.00,2014-02-17 22:57:00,
2014-02-17 16:02:00,46.2,16.5,32.00,North,0,0.0,0.0,30,0.00,,SKC,0.00,VWS V13.00,2014-02-17 23:02:00,
2014-02-17 16:07:00,45.9,16.2,32.00,North,0,0.0,0.0,30,0.00,,SKC,0.00,VWS V13.00,2014-02-17 23:07:00,
2014-02-17 16:12:00,45.9,15.4,32.00,North,0,0.0,0.0,29,0.00,,SKC,0.00,VWS V13.00,2014-02-17 23:12:00,
2014-02-17 16:17:00,45.9,16.2,32.00,North,0,0.0,0.0,30,0.00,,SKC,0.00,VWS V13.00,2014-02-17 23:17:00,
2014-02-17 16:22:00,45.5,15.9,32.00,North,0,0.0,0.0,30,0.00,,SKC,0.00,VWS V13.00,2014-02-17 23:22:00,
2014-02-17 16:27:00,45.5,15.1,32.00,North,0,0.0,0.0,29,0.00,,SKC,0.00,VWS V13.00,2014-02-17 23:27:00,
2014-02-17 16:32:00,45.3,15.7,32.00,North,0,0.0,0.0,30,0.00,,SKC,0.00,VWS V13.00,2014-02-17 23:32:00,
2014-02-17 16:37:00,45.1,15.6,32.00,North,0,0.0,0.0,30,0.00,,SKC,0.00,VWS V13.00,2014-02-17 23:37:00,
2014-02-17 16:42:00,45.0,14.6,32.00,North,0,0.0,0.0,29,0.00,,SKC,0.00,VWS V13.00,2014-02-17 23:42:00,
2014-02-17 16:47:00,45.1,15.6,32.00,North,0,0.0,0.0,30,0.00,,SKC,0.00,VWS V13.00,2014-02-17 23:47:00,
2014-02-17 16:52:00,44.6,15.1,32.00,North,0,0.0,0.0,30,0.00,,SKC,0.00,VWS V13.00,2014-02-17 23:52:00,
2014-02-17 16:57:00,44.2,15.5,32.00,North,0,0.0,0.0,31,0.00,,SKC,0.00,VWS V13.00,2014-02-17 23:57:00,
2014-02-17 17:02:00,44.4,15.7,32.00,North,0,0.0,0.0,31,0.00,,SKC,0.00,VWS V13.00,2014-02-18 00:02:00,
2014-02-17 17:07:00,44.6,15.1,32.00,North,0,0.0,0.0,30,0.00,,SKC,0.00,VWS V13.00,2014-02-18 00:07:00,
2014-02-17 17:12:00,44.2,15.5,32.00,North,0,0.0,0.0,31,0.00,,SKC,0.00,VWS V13.00,2014-02-18 00:12:00,
2014-02-17 17:17:00,44.2,15.5,32.00,North,0,0.0,0.0,31,0.00,,SKC,0.00,VWS V13.00,2014-02-18 00:17:00,
2014-02-17 17:22:00,44.8,14.5,32.00,North,0,0.0,0.0,29,0.00,,SKC,0.00,VWS V13.00,2014-02-18 00:22:00,
2014-02-17 17:27:00,45.1,15.6,32.00,North,0,0.0,0.0,30,0.00,,SKC,0.00,VWS V13.00,2014-02-18 00:27:00,
2014-02-17 17:32:00,44.8,15.3,32.00,North,0,0.0,0.0,30,0.00,,SKC,0.00,VWS V13.00,2014-02-18 00:32:00,
2014-02-17 17:37:00,44.6,15.1,32.00,North,0,0.0,0.0,30,0.00,,SKC,0.00,VWS V13.00,2014-02-18 00:37:00,
2014-02-17 17:42:00,44.2,15.5,32.00,North,0,0.0,0.0,31,0.00,,SKC,0.00,VWS V13.00,2014-02-18 00:42:00,
2014-02-17 17:47:00,43.9,15.2,32.00,North,0,0.0,0.0,31,0.00,,SKC,0.00,VWS V13.00,2014-02-18 00:47:00,
2014-02-17 17:52:00,43.7,15.1,32.00,North,0,0.0,0.0,31,0.00,,SKC,0.00,VWS V13.00,2014-02-18 00:52:00,
2014-02-17 17:57:00,43.7,14.3,32.00,North,0,0.0,0.0,30,0.00,,SKC,0.00,VWS V13.00,2014-02-18 00:57:00,
2014-02-17 18:02:00,43.7,15.1,32.00,North,0,0.0,0.0,31,0.00,,SKC,0.00,VWS V13.00,2014-02-18 01:02:00,
2014-02-17 18:07:00,43.5,14.9,32.00,North,0,0.0,0.0,31,0.00,,SKC,0.00,VWS V13.00,2014-02-18 01:07:00,
2014-02-17 18:12:00,43.3,14.0,32.00,North,0,0.0,0.0,30,0.00,,SKC,0.00,VWS V13.00,2014-02-18 01:12:00,
2014-02-17 18:17:00,43.3,14.0,32.00,North,0,0.0,0.0,30,0.00,,SKC,0.00,VWS V13.00,2014-02-18 01:17:00,
2014-02-17 18:22:00,43.0,14.4,32.00,North,0,0.0,0.0,31,0.00,,SKC,0.00,VWS V13.00,2014-02-18 01:22:00,
2014-02-17 18:27:00,43.0,12.9,32.00,North,0,0.0,0.0,29,0.00,,SKC,0.00,VWS V13.00,2014-02-18 01:27:00,
2014-02-17 18:32:00,43.0,14.4,32.00,North,0,0.0,0.0,31,0.00,,SKC,0.00,VWS V13.00,2014-02-18 01:32:00,
2014-02-17 18:37:00,42.6,14.1,32.00,North,0,0.0,0.0,31,0.00,,SKC,0.00,VWS V13.00,2014-02-18 01:37:00,
2014-02-17 18:42:00,42.1,13.6,32.00,North,0,0.0,0.0,31,0.00,,SKC,0.00,VWS V13.00,2014-02-18 01:42:00,
2014-02-17 18:47:00,42.1,12.9,32.00,North,0,0.0,0.0,30,0.00,,SKC,0.00,VWS V13.00,2014-02-18 01:47:00,
2014-02-17 18:52:00,42.1,14.4,32.00,North,0,0.0,0.0,32,0.00,,SKC,0.00,VWS V13.00,2014-02-18 01:52:00,
2014-02-17 18:57:00,41.7,14.1,32.00,North,0,0.0,0.0,32,0.00,,SKC,0.00,VWS V13.00,2014-02-18 01:57:00,
2014-02-17 19:02:00,41.5,13.9,32.00,North,0,0.0,0.0,32,0.00,,SKC,0.00,VWS V13.00,2014-02-18 02:02:00,
2014-02-17 19:07:00,41.5,13.9,32.00,North,0,0.0,0.0,32,0.00,,SKC,0.00,VWS V13.00,2014-02-18 02:07:00,
2014-02-17 19:12:00,41.4,13.7,32.00,North,0,0.0,0.0,32,0.00,,SKC,0.00,VWS V13.00,2014-02-18 02:12:00,
2014-02-17 19:17:00,41.2,13.6,32.00,North,0,0.0,0.0,32,0.00,,SKC,0.00,VWS V13.00,2014-02-18 02:17:00,
2014-02-17 19:22:00,41.2,15.0,32.00,North,0,0.0,0.0,34,0.00,,SKC,0.00,VWS V13.00,2014-02-18 02:22:00,
2014-02-17 19:27:00,41.2,13.6,32.00,North,0,0.0,0.0,32,0.00,,SKC,0.00,VWS V13.00,2014-02-18 02:27:00,
2014-02-17 19:32:00,41.5,13.9,32.00,North,0,0.0,0.0,32,0.00,,SKC,0.00,VWS V13.00,2014-02-18 02:32:00,
2014-02-17 19:37:00,41.7,13.3,32.00,North,0,0.0,0.0,31,0.00,,SKC,0.00,VWS V13.00,2014-02-18 02:37:00,
2014-02-17 19:42:00,42.4,14.0,32.00,North,0,0.0,0.0,31,0.00,,SKC,0.00,VWS V13.00,2014-02-18 02:42:00,
2014-02-17 19:47:00,42.4,14.0,32.00,North,0,0.0,0.0,31,0.00,,SKC,0.00,VWS V13.00,2014-02-18 02:47:00,
2014-02-17 19:52:00,42.1,12.9,32.00,North,0,0.0,0.0,30,0.00,,SKC,0.00,VWS V13.00,2014-02-18 02:52:00,
2014-02-17 19:57:00,42.1,14.4,32.00,North,0,0.0,0.0,32,0.00,,SKC,0.00,VWS V13.00,2014-02-18 02:57:00,
2014-02-17 20:02:00,42.1,15.1,32.00,North,0,0.0,0.0,33,0.00,,SKC,0.00,VWS V13.00,2014-02-18 03:02:00,
2014-02-17 20:07:00,42.1,14.4,32.00,North,0,0.0,0.0,32,0.00,,SKC,0.00,VWS V13.00,2014-02-18 03:07:00,
2014-02-17 20:12:00,42.1,15.1,32.00,North,0,0.0,0.0,33,0.00,,SKC,0.00,VWS V13.00,2014-02-18 03:12:00,
2014-02-17 20:15:00,42.1,13.6,32.00,North,0,0.0,0.0,31,0.00,,SKC,0.00,VWS V13.00,2014-02-18 03:15:00,
2014-02-17 20:20:00,42.3,13.8,32.00,North,0,0.0,0.0,31,0.00,,SKC,0.00,VWS V13.00,2014-02-18 03:20:00,
2014-02-17 20:25:00,42.8,15.0,32.00,North,0,0.0,0.0,32,0.00,,SKC,0.00,VWS V13.00,2014-02-18 03:25:00,
2014-02-17 20:30:00,42.8,14.3,32.00,North,0,0.0,0.0,31,0.00,,SKC,0.00,VWS V13.00,2014-02-18 03:30:00,
2014-02-17 20:35:00,42.8,15.0,32.00,North,0,0.0,0.0,32,0.00,,SKC,0.00,VWS V13.00,2014-02-18 03:35:00,
2014-02-17 20:40:00,42.3,15.2,32.00,North,0,0.0,0.0,33,0.00,,SKC,0.00,VWS V13.00,2014-02-18 03:40:00,
2014-02-17 20:45:00,41.9,14.9,32.00,North,0,0.0,0.0,33,0.00,,SKC,0.00,VWS V13.00,2014-02-18 03:45:00,
2014-02-17 20:50:00,41.7,14.8,32.00,North,0,0.0,0.0,33,0.00,,SKC,0.00,VWS V13.00,2014-02-18 03:50:00,
2014-02-17 20:55:00,42.3,13.8,32.00,North,0,0.0,0.0,31,0.00,,SKC,0.00,VWS V13.00,2014-02-18 03:55:00,
2014-02-17 21:00:00,42.3,14.5,32.00,North,0,0.0,0.0,32,0.00,,SKC,0.00,VWS V13.00,2014-02-18 04:00:00,
2014-02-17 21:05:00,42.3,13.8,32.00,North,0,0.0,0.0,31,0.00,,SKC,0.00,VWS V13.00,2014-02-18 04:05:00,
2014-02-17 21:10:00,42.4,14.7,32.00,North,0,0.0,0.0,32,0.00,,SKC,0.00,VWS V13.00,2014-02-18 04:10:00,
2014-02-17 21:15:00,42.1,13.6,32.00,North,0,0.0,0.0,31,0.00,,SKC,0.00,VWS V13.00,2014-02-18 04:15:00,
2014-02-17 21:20:00,42.3,14.5,32.00,North,0,0.0,0.0,32,0.00,,SKC,0.00,VWS V13.00,2014-02-18 04:20:00,
2014-02-17 21:25:00,41.5,13.9,32.00,North,0,0.0,0.0,32,0.00,,SKC,0.00,VWS V13.00,2014-02-18 04:25:00,
2014-02-17 21:30:00,41.2,13.6,32.00,North,0,0.0,0.0,32,0.00,,SKC,0.00,VWS V13.00,2014-02-18 04:30:00,
2014-02-17 21:35:00,41.2,13.6,32.00,North,0,0.0,0.0,32,0.00,,SKC,0.00,VWS V13.00,2014-02-18 04:35:00,
2014-02-17 21:40:00,41.4,13.7,32.00,North,0,0.0,0.0,32,0.00,,SKC,0.00,VWS V13.00,2014-02-18 04:40:00,
2014-02-17 21:45:00,42.1,13.6,32.00,North,0,0.0,0.0,31,0.00,,SKC,0.00,VWS V13.00,2014-02-18 04:45:00,
2014-02-17 21:50:00,42.4,15.4,32.00,North,0,0.0,0.0,33,0.00,,SKC,0.00,VWS V13.00,2014-02-18 04:50:00,
2014-02-17 21:55:00,42.4,14.7,32.00,North,0,0.0,0.0,32,0.00,,SKC,0.00,VWS V13.00,2014-02-18 04:55:00,
2014-02-17 22:00:00,42.4,14.0,32.00,North,0,0.0,0.0,31,0.00,,SKC,0.00,VWS V13.00,2014-02-18 05:00:00,
2014-02-17 22:01:00,42.8,15.0,32.00,North,0,0.0,0.0,32,0.00,,SKC,0.00,VWS V13.00,2014-02-18 05:01:00,
2014-02-17 22:03:00,42.8,14.3,32.00,North,0,0.0,0.0,31,0.00,,SKC,0.00,VWS V13.00,2014-02-18 05:03:00,
2014-02-17 22:08:00,43.2,14.6,32.00,North,0,0.0,0.0,31,0.00,,SKC,0.00,VWS V13.00,2014-02-18 05:08:00,
2014-02-17 22:13:00,43.5,14.9,32.00,North,0,0.0,0.0,31,0.00,,SKC,0.00,VWS V13.00,2014-02-18 05:13:00,
2014-02-17 22:18:00,43.5,14.2,32.00,North,0,0.0,0.0,30,0.00,,SKC,0.00,VWS V13.00,2014-02-18 05:18:00,
2014-02-17 22:23:00,43.9,15.2,32.00,North,0,0.0,0.0,31,0.00,,SKC,0.00,VWS V13.00,2014-02-18 05:23:00,
2014-02-17 22:28:00,43.7,14.3,32.00,North,0,0.0,0.0,30,0.00,,SKC,0.00,VWS V13.00,2014-02-18 05:28:00,
2014-02-17 22:33:00,43.7,15.1,32.00,North,0,0.0,0.0,31,0.00,,SKC,0.00,VWS V13.00,2014-02-18 05:33:00,
2014-02-17 22:38:00,43.7,14.3,32.00,North,0,0.0,0.0,30,0.00,,SKC,0.00,VWS V13.00,2014-02-18 05:38:00,
2014-02-17 22:43:00,43.5,14.2,32.00,North,0,0.0,0.0,30,0.00,,SKC,0.00,VWS V13.00,2014-02-18 05:43:00,
2014-02-17 22:48:00,43.3,14.8,32.00,North,0,0.0,0.0,31,0.00,,SKC,0.00,VWS V13.00,2014-02-18 05:48:00,
2014-02-17 22:53:00,43.0,14.4,32.00,North,0,0.0,0.0,31,0.00,,SKC,0.00,VWS V13.00,2014-02-18 05:53:00,
2014-02-17 22:58:00,42.8,14.3,32.00,North,0,0.0,0.0,31,0.00,,SKC,0.00,VWS V13.00,2014-02-18 05:58:00,
2014-02-17 23:03:00,42.6,14.8,32.00,North,0,0.0,0.0,32,0.00,,SKC,0.00,VWS V13.00,2014-02-18 06:03:00,
2014-02-17 23:08:00,42.6,14.8,32.00,North,0,0.0,0.0,32,0.00,,SKC,0.00,VWS V13.00,2014-02-18 06:08:00,
2014-02-17 23:13:00,42.6,14.8,32.00,North,0,0.0,0.0,32,0.00,,SKC,0.00,VWS V13.00,2014-02-18 06:13:00,
2014-02-17 23:18:00,42.4,14.7,32.00,North,0,0.0,0.0,32,0.00,,SKC,0.00,VWS V13.00,2014-02-18 06:18:00,
2014-02-17 23:23:00,42.6,14.8,32.00,North,0,0.0,0.0,32,0.00,,SKC,0.00,VWS V13.00,2014-02-18 06:23:00,
2014-02-17 23:28:00,42.6,14.8,32.00,North,0,0.0,0.0,32,0.00,,SKC,0.00,VWS V13.00,2014-02-18 06:28:00,
2014-02-17 23:33:00,42.3,14.5,32.00,North,0,0.0,0.0,32,0.00,,SKC,0.00,VWS V13.00,2014-02-18 06:33:00,
2014-02-17 23:38:00,42.1,14.4,32.00,North,0,0.0,0.0,32,0.00,,SKC,0.00,VWS V13.00,2014-02-18 06:38:00,
2014-02-17 23:43:00,41.5,13.9,32.00,North,0,0.0,0.0,32,0.00,,SKC,0.00,VWS V13.00,2014-02-18 06:43:00,
2014-02-17 23:48:00,41.7,13.3,32.00,North,0,0.0,0.0,31,0.00,,SKC,0.00,VWS V13.00,2014-02-18 06:48:00,
2014-02-17 23:53:00,42.1,13.6,32.00,North,0,0.0,0.0,31,0.00,,SKC,0.00,VWS V13.00,2014-02-18 06:53:00,
2014-02-17 23:58:00,42.6,14.8,32.00,North,0,0.0,0.0,32,0.00,,SKC,0.00,VWS V13.00,2014-02-18 06:58:00,